Time;durP1;ratioP1;P1;durP2;ratioP2;P2;SDS_P1;SDS_P2;PMS_P1;PMS_P2;Temp;Humidity;BMP_temperature;BMP_pressure;BME280_temperature;BME280_humidity;BME280_pressure;Samples;Min_cycle;Max_cycle;Signal;HPM_P1;HPM_P2
2022/08/06 14:59:25;;;;;;;;;0.50;0.50;;;;;-142.59;100.00;56100.38;5898195;22;47321;-66
2022/08/06 15:01:52;;;;;;;;;2.00;2.00;;;;;-142.59;100.00;56100.38;4967776;28;52132;-70
2022/08/06 15:04:20;;;;;;;;;4.00;1.75;;;;;-142.59;100.00;56100.38;4970287;28;50371;-65
2022/08/06 15:06:46;;;;;;;;;4.50;1.75;;;;;-142.59;100.00;56100.38;4971553;28;49968;-72
2022/08/06 15:09:14;;;;;;;;;1.50;1.50;;;;;-142.59;100.00;56100.38;4974684;28;53587;-71
2022/08/06 15:11:40;;;;;;;;;1.50;1.50;;;;;-142.59;100.00;56100.38;4966827;28;51192;-76
2022/08/06 15:14:06;;;;;;;;;1.75;1.75;;;;;-142.59;100.00;56100.38;4970578;28;49532;-68
2022/08/06 15:16:31;;;;;;;;;0.75;0.75;;;;;-142.59;100.00;56100.38;4988741;28;49529;-82
2022/08/06 15:18:56;;;;;;;;;1.00;0.75;;;;;-142.59;100.00;56100.38;4987634;28;49578;-84
2022/08/06 15:21:22;;;;;;;;;0.25;0.25;;;;;-142.59;100.00;56100.38;4985465;28;49709;-82
2022/08/06 15:23:48;;;;;;;;;0.50;0.00;;;;;-142.59;100.00;56100.38;4971450;28;49505;-75
2022/08/06 15:26:14;;;;;;;;;2.00;1.00;;;;;-142.59;100.00;56100.38;4969340;28;49376;-78
2022/08/06 15:28:43;;;;;;;;;1.00;1.00;;;;;-142.59;100.00;56100.38;4971241;28;50114;-73
2022/08/06 15:31:09;;;;;;;;;0.25;0.25;;;;;-142.59;100.00;56100.38;4977352;28;49780;-82
2022/08/06 15:33:34;;;;;;;;;1.00;1.00;;;;;-142.59;100.00;56100.38;4953606;28;50318;-73
2022/08/06 15:36:00;;;;;;;;;1.75;1.75;;;;;-142.59;100.00;56100.38;4960762;28;49826;-80
2022/08/06 15:38:26;;;;;;;;;1.00;1.00;;;;;-142.59;100.00;56100.38;4987343;28;50624;-83
2022/08/06 15:40:52;;;;;;;;;1.00;1.00;;;;;-142.59;100.00;56100.38;4988160;28;50434;-76
2022/08/06 15:43:19;;;;;;;;;0.00;0.00;;;;;-142.59;100.00;56100.38;4971256;28;49532;-75
2022/08/06 15:45:45;;;;;;;;;3.00;1.00;;;;;-142.59;100.00;56100.38;4981997;28;50052;-69
2022/08/06 15:48:14;;;;;;;;;1.75;1.75;;;;;-142.59;100.00;56100.38;4969953;28;49833;-73
2022/08/06 15:50:43;;;;;;;;;1.50;0.75;;;;;-142.59;100.00;56100.38;4975249;28;49979;-71
2022/08/06 15:53:14;;;;;;;;;1.00;1.00;;;;;-142.59;100.00;56100.38;4981971;28;49999;-75
2022/08/06 15:55:41;;;;;;;;;1.75;1.75;;;;;-142.59;100.00;56100.38;4977582;28;49648;-69
2022/08/06 15:58:09;;;;;;;;;1.00;1.00;;;;;-142.59;100.00;56100.38;4988240;28;49900;-71
2022/08/06 16:00:37;;;;;;;;;1.25;1.00;;;;;-142.59;100.00;56100.38;4987061;28;49567;-71
2022/08/06 16:03:04;;;;;;;;;0.50;0.25;;;;;-142.59;100.00;56100.38;4970563;28;49638;-65
2022/08/06 16:05:29;;;;;;;;;2.00;1.00;;;;;-142.59;100.00;56100.38;4987360;28;49662;-66
2022/08/06 16:07:55;;;;;;;;;1.25;1.25;;;;;-142.59;100.00;56100.38;4986483;28;49592;-68
2022/08/06 16:10:20;;;;;;;;;2.00;2.00;;;;;-142.59;100.00;56100.38;4987161;28;50026;-67
2022/08/06 16:12:46;;;;;;;;;2.00;1.00;;;;;-142.59;100.00;56100.38;4970197;28;49781;-67
2022/08/06 16:15:15;;;;;;;;;1.25;1.25;;;;;-142.59;100.00;56100.38;4956569;28;50040;-78
2022/08/06 16:17:40;;;;;;;;;1.50;1.50;;;;;-142.59;100.00;56100.38;4958063;28;50125;-73
2022/08/06 16:20:07;;;;;;;;;0.25;0.25;;;;;-142.59;100.00;56100.38;4974182;28;49670;-83
2022/08/06 16:22:32;;;;;;;;;1.25;1.25;;;;;-142.59;100.00;56100.38;4982610;28;49631;-81
2022/08/06 16:24:58;;;;;;;;;2.00;2.00;;;;;-142.59;100.00;56100.38;4987542;28;49373;-78
2022/08/06 16:27:24;;;;;;;;;1.00;1.00;;;;;-142.59;100.00;56100.38;4974250;28;49742;-80
2022/08/06 16:29:55;;;;;;;;;1.00;1.00;;;;;-142.59;100.00;56100.38;4983078;28;50367;-81
2022/08/06 16:32:21;;;;;;;;;2.25;1.00;;;;;-142.59;100.00;56100.38;4988488;28;49335;-72
2022/08/06 16:34:46;;;;;;;;;4.25;2.00;;;;;-142.59;100.00;56100.38;4973787;28;49979;-73
2022/08/06 16:37:12;;;;;;;;;3.00;3.00;;;;;-142.59;100.00;56100.38;4952247;28;49725;-68
2022/08/06 16:39:38;;;;;;;;;3.00;2.00;;;;;-142.59;100.00;56100.38;4973941;28;50174;-73
2022/08/06 16:42:05;;;;;;;;;2.00;2.00;;;;;-142.59;100.00;56100.38;4969905;28;49951;-76
2022/08/06 16:44:31;;;;;;;;;2.50;2.50;;;;;-142.59;100.00;56100.38;4969756;28;50220;-68
2022/08/06 16:46:56;;;;;;;;;1.50;1.50;;;;;-142.59;100.00;56100.38;4969951;28;49989;-72
2022/08/06 16:49:22;;;;;;;;;1.75;1.75;;;;;-142.59;100.00;56100.38;4951898;28;51302;-72
2022/08/06 16:51:47;;;;;;;;;2.00;2.00;;;;;-142.59;100.00;56100.38;4969956;28;49734;-68
2022/08/06 16:54:15;;;;;;;;;4.00;4.00;;;;;-142.59;100.00;56100.38;4971689;28;49751;-73
2022/08/06 16:56:40;;;;;;;;;2.75;2.75;;;;;-142.59;100.00;56100.38;4969923;28;50098;-70
2022/08/06 16:59:07;;;;;;;;;3.25;3.25;;;;;-142.59;100.00;56100.38;4973721;28;50111;-68
2022/08/06 17:01:36;;;;;;;;;2.75;2.00;;;;;-142.59;100.00;56100.38;4974370;28;49612;-69
2022/08/06 17:04:02;;;;;;;;;4.25;2.75;;;;;-142.59;100.00;56100.38;4974558;28;49964;-67
2022/08/06 17:06:29;;;;;;;;;4.00;3.75;;;;;-142.59;100.00;56100.38;4973103;28;49880;-67
2022/08/06 17:08:55;;;;;;;;;3.75;2.00;;;;;-142.59;100.00;56100.38;4972412;28;49847;-67
2022/08/06 17:11:21;;;;;;;;;4.00;3.00;;;;;-142.59;100.00;56100.38;4975504;28;49879;-77
2022/08/06 17:13:46;;;;;;;;;3.00;3.00;;;;;-142.59;100.00;56100.38;4972928;28;49616;-79
2022/08/06 17:16:11;;;;;;;;;4.75;4.25;;;;;-142.59;100.00;56100.38;4973224;28;49967;-79
2022/08/06 17:18:37;;;;;;;;;1.00;1.00;;;;;-142.59;100.00;56100.38;4972797;28;49682;-77
2022/08/06 17:21:02;;;;;;;;;4.00;4.00;;;;;-142.59;100.00;56100.38;4973241;28;49694;-77
2022/08/06 17:23:27;;;;;;;;;2.00;2.00;;;;;-142.59;100.00;56100.38;4973059;28;49796;-76
2022/08/06 17:25:54;;;;;;;;;1.75;1.75;;;;;-142.59;100.00;56100.38;4974496;28;49636;-80
2022/08/06 17:28:19;;;;;;;;;3.00;3.00;;;;;-142.59;100.00;56100.38;4976747;28;51329;-75
2022/08/06 17:30:45;;;;;;;;;2.25;2.25;;;;;-142.59;100.00;56100.38;4973309;28;49722;-79
2022/08/06 17:33:11;;;;;;;;;4.75;3.75;;;;;-142.59;100.00;56100.38;4972767;28;49890;-80
2022/08/06 17:35:36;;;;;;;;;3.00;1.25;;;;;-142.59;100.00;56100.38;4971539;28;49920;-75
2022/08/06 17:38:02;;;;;;;;;4.25;3.00;;;;;-142.59;100.00;56100.38;4971361;28;50045;-77
2022/08/06 17:40:29;;;;;;;;;2.25;2.00;;;;;-142.59;100.00;56100.38;4974624;28;49837;-77
2022/08/06 17:42:55;;;;;;;;;4.00;3.00;;;;;-142.59;100.00;56100.38;4971256;28;49871;-77
2022/08/06 17:45:21;;;;;;;;;1.25;1.25;;;;;-142.59;100.00;56100.38;4968868;28;49836;-80
2022/08/06 17:47:47;;;;;;;;;4.25;3.75;;;;;-142.59;100.00;56100.38;4978672;28;49718;-80
2022/08/06 17:50:12;;;;;;;;;3.75;1.75;;;;;-142.59;100.00;56100.38;4989093;28;49348;-80
2022/08/06 17:52:38;;;;;;;;;2.75;2.75;;;;;-142.59;100.00;56100.38;4988127;28;49613;-78
2022/08/06 17:55:04;;;;;;;;;1.25;0.75;;;;;-142.59;100.00;56100.38;4988527;28;49478;-78
2022/08/06 17:57:29;;;;;;;;;1.00;1.00;;;;;-142.59;100.00;56100.38;4989195;28;49808;-74
2022/08/06 17:59:55;;;;;;;;;1.00;1.00;;;;;-142.59;100.00;56100.38;4989546;28;49742;-81
2022/08/06 18:02:21;;;;;;;;;0.00;0.00;;;;;-142.59;100.00;56100.38;4988745;28;49585;-75
2022/08/06 18:04:48;;;;;;;;;2.25;2.25;;;;;-142.59;100.00;56100.38;4988836;28;50300;-79
2022/08/06 18:07:14;;;;;;;;;1.75;1.75;;;;;-142.59;100.00;56100.38;4977333;28;49687;-79
2022/08/06 18:09:41;;;;;;;;;2.25;2.25;;;;;-142.59;100.00;56100.38;4968672;28;49476;-78
2022/08/06 18:12:07;;;;;;;;;0.50;0.50;;;;;-142.59;100.00;56100.38;4985743;28;49328;-82
2022/08/06 18:14:32;;;;;;;;;2.00;1.25;;;;;-142.59;100.00;56100.38;4988966;28;49621;-74
2022/08/06 18:16:58;;;;;;;;;2.25;2.00;;;;;-142.59;100.00;56100.38;4984487;28;49810;-76
2022/08/06 18:19:23;;;;;;;;;2.00;2.00;;;;;-142.59;100.00;56100.38;4958742;28;49720;-81
2022/08/06 18:21:49;;;;;;;;;5.25;4.00;;;;;-142.59;100.00;56100.38;4969348;28;50026;-77
2022/08/06 18:24:14;;;;;;;;;1.75;1.75;;;;;-142.59;100.00;56100.38;4979627;28;49882;-77
2022/08/06 18:26:39;;;;;;;;;1.50;1.50;;;;;-142.59;100.00;56100.38;4970889;28;50451;-74
2022/08/06 18:29:05;;;;;;;;;2.00;2.00;;;;;-142.59;100.00;56100.38;4965043;28;50071;-74
2022/08/06 18:31:33;;;;;;;;;2.75;2.75;;;;;-142.59;100.00;56100.38;4955671;28;49930;-76
2022/08/06 18:33:59;;;;;;;;;2.25;2.25;;;;;-142.59;100.00;56100.38;4956067;28;50078;-76
2022/08/06 18:36:24;;;;;;;;;3.50;2.25;;;;;-142.59;100.00;56100.38;4984826;28;50577;-74
2022/08/06 18:38:49;;;;;;;;;2.50;1.25;;;;;-142.59;100.00;56100.38;4965150;28;49850;-75
2022/08/06 18:41:15;;;;;;;;;4.00;3.00;;;;;-142.59;100.00;56100.38;4981098;28;49910;-74
2022/08/06 18:43:41;;;;;;;;;1.00;1.00;;;;;-142.59;100.00;56100.38;4964802;28;50038;-75
2022/08/06 18:46:07;;;;;;;;;2.00;2.00;;;;;-142.59;100.00;56100.38;4989564;28;49541;-75
2022/08/06 18:48:33;;;;;;;;;4.50;3.50;;;;;-142.59;100.00;56100.38;4971275;28;49431;-73
2022/08/06 18:50:58;;;;;;;;;4.75;3.00;;;;;-142.59;100.00;56100.38;4986130;28;49315;-75
2022/08/06 18:53:24;;;;;;;;;1.00;1.00;;;;;-142.59;100.00;56100.38;4985827;28;49775;-74
2022/08/06 18:55:50;;;;;;;;;2.00;2.00;;;;;-142.59;100.00;56100.38;4988668;28;49847;-73
2022/08/06 18:58:15;;;;;;;;;1.50;1.50;;;;;-142.59;100.00;56100.38;4985561;28;49390;-75
2022/08/06 19:00:41;;;;;;;;;3.00;3.00;;;;;-142.59;100.00;56100.38;4957403;28;49882;-77
2022/08/06 19:03:08;;;;;;;;;2.00;2.00;;;;;-142.59;100.00;56100.38;4975043;28;49857;-79
2022/08/06 19:05:33;;;;;;;;;2.00;2.00;;;;;-142.59;100.00;56100.38;4954705;28;52184;-75
2022/08/06 19:07:59;;;;;;;;;2.50;2.50;;;;;-142.59;100.00;56100.38;4953731;28;50049;-84
2022/08/06 19:10:25;;;;;;;;;2.00;2.00;;;;;-142.59;100.00;56100.38;4973825;28;50052;-80
2022/08/06 19:12:51;;;;;;;;;2.50;2.50;;;;;-142.59;100.00;56100.38;4970046;28;49904;-79
2022/08/06 19:15:19;;;;;;;;;2.25;2.25;;;;;-142.59;100.00;56100.38;4969447;28;52351;-76
2022/08/06 19:17:45;;;;;;;;;0.00;0.00;;;;;-142.59;100.00;56100.38;4953426;28;49899;-76
2022/08/06 19:20:15;;;;;;;;;2.75;2.75;;;;;-142.59;100.00;56100.38;4973802;28;50474;-71
2022/08/06 19:22:40;;;;;;;;;3.25;3.25;;;;;-142.59;100.00;56100.38;4972487;28;49663;-71
2022/08/06 19:25:07;;;;;;;;;3.00;3.00;;;;;-142.59;100.00;56100.38;4984846;28;49655;-73
2022/08/06 19:27:32;;;;;;;;;3.00;2.75;;;;;-142.59;100.00;56100.38;4971083;28;50591;-68
2022/08/06 19:29:57;;;;;;;;;2.50;2.25;;;;;-142.59;100.00;56100.38;4969174;28;49831;-69
2022/08/06 19:32:24;;;;;;;;;4.50;3.75;;;;;-142.59;100.00;56100.38;4971032;28;49914;-68
2022/08/06 19:34:51;;;;;;;;;4.75;3.00;;;;;-142.59;100.00;56100.38;4970391;28;50813;-70
2022/08/06 19:37:17;;;;;;;;;4.00;2.00;;;;;-142.59;100.00;56100.38;4972181;28;49758;-70
2022/08/06 19:39:44;;;;;;;;;3.75;2.75;;;;;-142.59;100.00;56100.38;4988383;28;49410;-67
2022/08/06 19:42:12;;;;;;;;;3.75;3.00;;;;;-142.59;100.00;56100.38;4970713;28;49754;-71
2022/08/06 19:44:38;;;;;;;;;4.75;3.75;;;;;-142.59;100.00;56100.38;4970121;28;49745;-71
2022/08/06 19:47:05;;;;;;;;;3.00;3.00;;;;;-142.59;100.00;56100.38;4952438;28;49746;-67
2022/08/06 19:49:31;;;;;;;;;2.25;2.00;;;;;-142.59;100.00;56100.38;4970547;28;49858;-68
2022/08/06 19:51:56;;;;;;;;;3.75;3.75;;;;;-142.59;100.00;56100.38;4972028;28;49726;-67
2022/08/06 19:54:22;;;;;;;;;2.50;2.25;;;;;-142.59;100.00;56100.38;4974163;28;50267;-69
2022/08/06 19:56:48;;;;;;;;;3.75;2.50;;;;;-142.59;100.00;56100.38;4974516;28;49772;-70
2022/08/06 19:59:13;;;;;;;;;5.25;5.25;;;;;-142.59;100.00;56100.38;4974483;28;49616;-70
2022/08/06 20:01:39;;;;;;;;;4.00;4.00;;;;;-142.59;100.00;56100.38;4976100;28;49371;-72
2022/08/06 20:04:04;;;;;;;;;4.00;4.00;;;;;-142.59;100.00;56100.38;4970181;28;50912;-71
2022/08/06 20:06:30;;;;;;;;;7.00;5.25;;;;;-142.59;100.00;56100.38;4970213;28;49856;-66
2022/08/06 20:08:55;;;;;;;;;4.50;4.50;;;;;-142.59;100.00;56100.38;4978261;28;49648;-70
2022/08/06 20:11:22;;;;;;;;;4.25;3.00;;;;;-142.59;100.00;56100.38;4979680;28;49658;-69
2022/08/06 20:13:49;;;;;;;;;2.75;2.75;;;;;-142.59;100.00;56100.38;4970614;28;49957;-70
2022/08/06 20:16:14;;;;;;;;;4.25;3.25;;;;;-142.59;100.00;56100.38;4971184;28;49705;-67
2022/08/06 20:18:39;;;;;;;;;3.00;3.00;;;;;-142.59;100.00;56100.38;4971915;28;49963;-70
2022/08/06 20:21:05;;;;;;;;;2.00;2.00;;;;;-142.59;100.00;56100.38;4970348;28;49766;-71
2022/08/06 20:23:31;;;;;;;;;5.00;3.50;;;;;-142.59;100.00;56100.38;4969830;28;50397;-71
2022/08/06 20:25:57;;;;;;;;;6.00;3.50;;;;;-142.59;100.00;56100.38;4975061;28;50450;-68
2022/08/06 20:28:24;;;;;;;;;2.25;2.25;;;;;-142.59;100.00;56100.38;4982347;28;49528;-72
2022/08/06 20:30:49;;;;;;;;;4.00;4.00;;;;;-142.59;100.00;56100.38;4970182;28;50056;-68
2022/08/06 20:33:15;;;;;;;;;5.25;4.25;;;;;-142.59;100.00;56100.38;4952864;28;52285;-69
2022/08/06 20:35:42;;;;;;;;;5.25;4.00;;;;;-142.59;100.00;56100.38;4975548;28;49794;-68
2022/08/06 20:38:15;;;;;;;;;4.75;4.75;;;;;-142.59;100.00;56100.38;4975377;28;49729;-68
2022/08/06 20:40:46;;;;;;;;;6.25;4.75;;;;;-142.59;100.00;56100.38;4971715;28;50331;-68
2022/08/06 20:43:14;;;;;;;;;4.00;4.00;;;;;-142.59;100.00;56100.38;4965266;28;51074;-73
2022/08/06 20:45:42;;;;;;;;;3.50;3.50;;;;;-142.59;100.00;56100.38;4958638;28;49811;-71
2022/08/06 20:48:08;;;;;;;;;5.00;3.75;;;;;-142.59;100.00;56100.38;4977146;28;49692;-69
2022/08/06 20:50:34;;;;;;;;;2.00;2.00;;;;;-142.59;100.00;56100.38;4985571;28;49629;-76
2022/08/06 20:52:59;;;;;;;;;6.00;6.00;;;;;-142.59;100.00;56100.38;4991055;28;49971;-69
2022/08/06 20:55:24;;;;;;;;;4.50;4.50;;;;;-142.59;100.00;56100.38;4991108;28;49428;-71
2022/08/06 20:57:50;;;;;;;;;4.00;4.00;;;;;-142.59;100.00;56100.38;4988137;28;49461;-70
2022/08/06 21:00:22;;;;;;;;;5.00;5.00;;;;;-142.59;100.00;56100.38;4987857;28;55556;-74
2022/08/06 21:02:50;;;;;;;;;5.00;5.00;;;;;-142.59;100.00;56100.38;4981954;28;49669;-74
2022/08/06 21:05:17;;;;;;;;;5.50;5.50;;;;;-142.59;100.00;56100.38;4977212;28;49710;-72
2022/08/06 21:07:46;;;;;;;;;1.75;1.75;;;;;-142.59;100.00;56100.38;4971981;28;50029;-75
2022/08/06 21:10:12;;;;;;;;;5.50;4.50;;;;;-142.59;100.00;56100.38;4972972;28;49794;-75
2022/08/06 21:12:38;;;;;;;;;6.00;5.00;;;;;-142.59;100.00;56100.38;4953099;28;56502;-73
2022/08/06 21:15:05;;;;;;;;;5.75;5.75;;;;;-142.59;100.00;56100.38;4971787;28;49896;-73
2022/08/06 21:17:31;;;;;;;;;4.75;3.50;;;;;-142.59;100.00;56100.38;4972649;28;49564;-74
2022/08/06 21:19:56;;;;;;;;;4.00;4.00;;;;;-142.59;100.00;56100.38;4972553;28;49752;-76
2022/08/06 21:22:22;;;;;;;;;6.75;6.50;;;;;-142.59;100.00;56100.38;4979313;28;51482;-75
2022/08/06 21:24:48;;;;;;;;;6.25;5.50;;;;;-142.59;100.00;56100.38;4980877;28;49896;-76
2022/08/06 21:27:14;;;;;;;;;4.50;4.50;;;;;-142.59;100.00;56100.38;4981708;28;49919;-76
2022/08/06 21:29:39;;;;;;;;;4.25;4.25;;;;;-142.59;100.00;56100.38;4980796;28;49852;-72
2022/08/06 21:32:04;;;;;;;;;5.00;4.75;;;;;-142.59;100.00;56100.38;4979010;28;49813;-76
2022/08/06 21:34:34;;;;;;;;;5.00;5.00;;;;;-142.59;100.00;56100.38;4975558;28;49851;-77
2022/08/06 21:37:01;;;;;;;;;5.50;5.50;;;;;-142.59;100.00;56100.38;4973055;28;49833;-74
2022/08/06 21:39:31;;;;;;;;;4.25;3.25;;;;;-142.59;100.00;56100.38;4955240;28;50076;-74
2022/08/06 21:41:57;;;;;;;;;4.00;4.00;;;;;-142.59;100.00;56100.38;4954726;28;51407;-74
2022/08/06 21:44:23;;;;;;;;;4.50;4.50;;;;;-142.59;100.00;56100.38;4971601;28;49651;-72
2022/08/06 21:46:49;;;;;;;;;4.00;4.00;;;;;-142.59;100.00;56100.38;4971941;28;49754;-70
2022/08/06 21:49:14;;;;;;;;;5.00;3.50;;;;;-142.59;100.00;56100.38;4972833;28;49920;-75
2022/08/06 21:51:39;;;;;;;;;4.00;4.00;;;;;-142.59;100.00;56100.38;4972371;28;50571;-71
2022/08/06 21:54:06;;;;;;;;;4.00;4.00;;;;;-142.59;100.00;56100.38;4972205;28;56801;-74
2022/08/06 21:56:32;;;;;;;;;5.50;4.25;;;;;-142.59;100.00;56100.38;4971838;28;49699;-73
2022/08/06 21:58:57;;;;;;;;;3.50;3.25;;;;;-142.59;100.00;56100.38;4971609;28;50198;-71
2022/08/06 22:01:23;;;;;;;;;5.50;5.50;;;;;-142.59;100.00;56100.38;4971053;28;50164;-69
2022/08/06 22:03:51;;;;;;;;;5.25;4.25;;;;;-142.59;100.00;56100.38;4971880;28;50236;-69
2022/08/06 22:06:19;;;;;;;;;7.00;5.50;;;;;-142.59;100.00;56100.38;4971752;28;50029;-71
2022/08/06 22:08:46;;;;;;;;;5.50;5.00;;;;;-142.59;100.00;56100.38;4954439;28;50008;-69
2022/08/06 22:11:12;;;;;;;;;3.00;3.00;;;;;-142.59;100.00;56100.38;4971563;28;50363;-72
2022/08/06 22:13:37;;;;;;;;;4.00;4.00;;;;;-142.59;100.00;56100.38;4967330;28;50047;-72
2022/08/06 22:16:03;;;;;;;;;5.25;5.25;;;;;-142.59;100.00;56100.38;4971593;28;49651;-73
2022/08/06 22:18:29;;;;;;;;;6.75;3.75;;;;;-142.59;100.00;56100.38;4971587;28;49947;-70
2022/08/06 22:20:56;;;;;;;;;4.00;4.00;;;;;-142.59;100.00;56100.38;4971106;28;50526;-69
2022/08/06 22:23:21;;;;;;;;;6.00;5.00;;;;;-142.59;100.00;56100.38;4965558;28;49648;-73
2022/08/06 22:25:47;;;;;;;;;4.00;3.00;;;;;-142.59;100.00;56100.38;4971960;28;49833;-72
2022/08/06 22:28:13;;;;;;;;;4.00;4.00;;;;;-142.59;100.00;56100.38;4971787;28;50206;-73
2022/08/06 22:30:38;;;;;;;;;4.75;4.75;;;;;-142.59;100.00;56100.38;4971759;28;50226;-73
2022/08/06 22:33:10;;;;;;;;;3.00;3.00;;;;;-142.59;100.00;56100.38;4971706;28;50064;-69
2022/08/06 22:35:37;;;;;;;;;4.00;4.00;;;;;-142.59;100.00;56100.38;4971620;28;49710;-73
2022/08/06 22:38:05;;;;;;;;;5.50;5.50;;;;;-142.59;100.00;56100.38;4971660;28;49954;-73
2022/08/06 22:40:35;;;;;;;;;4.50;4.50;;;;;-142.59;100.00;56100.38;4971252;28;49797;-70
2022/08/06 22:43:02;;;;;;;;;3.00;3.00;;;;;-142.59;100.00;56100.38;4971686;28;49782;-69
2022/08/06 22:45:28;;;;;;;;;4.00;4.00;;;;;-142.59;100.00;56100.38;4971254;28;49905;-69
2022/08/06 22:47:54;;;;;;;;;6.00;3.75;;;;;-142.59;100.00;56100.38;4971640;28;49908;-72
2022/08/06 22:50:19;;;;;;;;;5.00;5.00;;;;;-142.59;100.00;56100.38;4971136;28;50345;-73
2022/08/06 22:52:45;;;;;;;;;4.00;4.00;;;;;-142.59;100.00;56100.38;4971300;28;49846;-71
2022/08/06 22:55:10;;;;;;;;;2.00;2.00;;;;;-142.59;100.00;56100.38;4971359;28;49678;-69
2022/08/06 22:57:35;;;;;;;;;4.00;4.00;;;;;-142.59;100.00;56100.38;4971344;28;49848;-72
2022/08/06 23:00:01;;;;;;;;;3.75;3.75;;;;;-142.59;100.00;56100.38;4971042;28;50264;-69
2022/08/06 23:02:27;;;;;;;;;4.00;4.00;;;;;-142.59;100.00;56100.38;4971451;28;50081;-74
2022/08/06 23:04:52;;;;;;;;;4.00;4.00;;;;;-142.59;100.00;56100.38;4970934;28;52665;-74
2022/08/06 23:07:18;;;;;;;;;4.00;4.00;;;;;-142.59;100.00;56100.38;4971562;28;49905;-72
2022/08/06 23:09:43;;;;;;;;;4.00;4.00;;;;;-142.59;100.00;56100.38;4970782;28;50891;-70
2022/08/06 23:12:09;;;;;;;;;5.00;5.00;;;;;-142.59;100.00;56100.38;4970942;28;49842;-73
2022/08/06 23:14:35;;;;;;;;;4.00;4.00;;;;;-142.59;100.00;56100.38;4971069;28;49872;-73
2022/08/06 23:17:02;;;;;;;;;3.00;3.00;;;;;-142.59;100.00;56100.38;4971328;28;49803;-73
2022/08/06 23:19:27;;;;;;;;;3.00;3.00;;;;;-142.59;100.00;56100.38;4973850;28;49991;-73
2022/08/06 23:21:52;;;;;;;;;5.00;3.75;;;;;-142.59;100.00;56100.38;4971095;28;49754;-74
2022/08/06 23:24:18;;;;;;;;;2.25;2.25;;;;;-142.59;100.00;56100.38;4956017;28;57301;-73
2022/08/06 23:26:43;;;;;;;;;3.75;3.00;;;;;-142.59;100.00;56100.38;4971074;28;49736;-73
2022/08/06 23:29:09;;;;;;;;;2.25;2.25;;;;;-142.59;100.00;56100.38;4963702;28;62208;-74
2022/08/06 23:31:36;;;;;;;;;3.25;3.25;;;;;-142.59;100.00;56100.38;4970886;28;49633;-73
2022/08/06 23:34:02;;;;;;;;;5.00;3.75;;;;;-142.59;100.00;56100.38;4970989;28;49734;-74
2022/08/06 23:36:28;;;;;;;;;4.50;3.00;;;;;-142.59;100.00;56100.38;4971038;28;49977;-72
2022/08/06 23:38:54;;;;;;;;;4.00;4.00;;;;;-142.59;100.00;56100.38;4970636;28;49758;-73
2022/08/06 23:41:20;;;;;;;;;4.75;4.75;;;;;-142.59;100.00;56100.38;4952523;28;49774;-72
2022/08/06 23:43:46;;;;;;;;;3.00;3.00;;;;;-142.59;100.00;56100.38;4970394;28;49783;-73
2022/08/06 23:46:12;;;;;;;;;3.00;3.00;;;;;-142.59;100.00;56100.38;4970964;28;49848;-74
2022/08/06 23:48:37;;;;;;;;;4.00;4.00;;;;;-142.59;100.00;56100.38;4970424;28;49759;-75
2022/08/06 23:51:04;;;;;;;;;3.00;3.00;;;;;-142.59;100.00;56100.38;4970621;28;49866;-75
2022/08/06 23:53:29;;;;;;;;;6.25;5.00;;;;;-142.59;100.00;56100.38;4970649;28;49984;-75
2022/08/06 23:55:55;;;;;;;;;4.00;4.00;;;;;-142.59;100.00;56100.38;4970810;28;49881;-75
2022/08/06 23:58:20;;;;;;;;;4.00;4.00;;;;;-142.59;100.00;56100.38;4970087;28;54368;-73
